This is the latest recevied weather packets stored in our database for station/object NUUKSIO. If no packets are shown the sender has not sent any weather packets the latest 10 day(s).
| Time | Temp. | Humidity | Pressure | Rain* | Wind** | Luminosity | Snow |
|---|---|---|---|---|---|---|---|
| 1777774025 | 4.44° C | 96% | 1005.7 hPa | 0 mm | - | - | - |
| 1777772826 | 3.89° C | 96% | 1005.7 hPa | 0 mm | - | - | - |
| 1777771625 | 3.89° C | 95% | 1005.6 hPa | 0 mm | - | - | - |
| 1777770425 | 4.44° C | 93% | 1005.8 hPa | 0 mm | - | - | - |
| 1777769225 | 4.44° C | 95% | 1005.7 hPa | 0 mm | - | - | - |
| 1777768025 | 4.44° C | 93% | 1006 hPa | 0 mm | - | - | - |
| 1777766825 | 4.44° C | 91% | 1006.2 hPa | 0 mm | - | - | - |
| 1777765625 | 5° C | 89% | 1006.5 hPa | 0 mm | - | - | - |
| 1777764425 | 5.56° C | 87% | 1006.4 hPa | 0 mm | - | - | - |
| 1777763225 | 5.56° C | 86% | 1006.8 hPa | 0 mm | - | - | - |
| 1777762025 | 6.11° C | 86% | 1006.8 hPa | 0 mm | - | - | - |
| 1777760826 | 6.11° C | 85% | 1006.9 hPa | 0 mm | - | - | - |
| 1777759625 | 6.11° C | 85% | 1007.2 hPa | 0 mm | - | - | - |
| 1777758425 | 6.11° C | 83% | 1007.4 hPa | 0 mm | - | - | - |
| 1777757225 | 6.67° C | 81% | 1007.6 hPa | 0 mm | - | - | - |
| 1777756025 | 7.22° C | 79% | 1007.8 hPa | 0 mm | - | - | - |
| 1777754825 | 7.78° C | 77% | 1008 hPa | 0 mm | - | - | - |
| 1777753625 | 8.33° C | 74% | 1008.2 hPa | 0 mm | - | - | - |
| 1777752425 | 9.44° C | 70% | 1008.2 hPa | 0 mm | - | - | - |
| 1777751224 | 10° C | 66% | 1008.3 hPa | 0 mm | - | - | - |
| 1777750024 | 10.56° C | 65% | 1008.4 hPa | 0 mm | - | - | - |
| 1777748824 | 11.11° C | 62% | 1008.5 hPa | 0 mm | - | - | - |
| 1777747624 | 11.67° C | 59% | 1008.6 hPa | 0 mm | - | - | - |
| 1777746424 | 12.78° C | 57% | 1008.6 hPa | 0 mm | - | - | - |
| 1777745224 | 13.33° C | 54% | 1008.5 hPa | 0 mm | - | - | - |
* Rain latest hour (hover to see other rain measurements)
** Current wind speed in m/s (hover to see current wind gust speed)